EDT,Max TemperatureF,Mean TemperatureF,Min TemperatureF,Max Dew PointF,MeanDew PointF,Min DewpointF,Max Humidity, Mean Humidity, Min Humidity, Max Sea Level PressureIn, Mean Sea Level PressureIn, Min Sea Level PressureIn, Max VisibilityMiles, Mean VisibilityMiles, Min VisibilityMiles, Max Wind SpeedMPH, Mean Wind SpeedMPH, Max Gust SpeedMPH,PrecipitationIn, CloudCover, Events, WindDirDegrees
2013-6-1,88,73,58,66,62,57,97,67,36,29.99,29.93,29.86,10,9,2,20,4,28,0.06,1,,207
2013-6-2,84,72,60,68,63,55,100,76,51,29.92,29.81,29.71,10,6,0,30,7,46,0.54,4,Fog-Rain-Thunderstorm,200
2013-6-3,69,58,46,56,51,41,93,72,51,29.90,29.84,29.82,10,10,9,16,6,23,0.00,1,,287
2013-6-4,61,52,43,43,40,37,83,65,47,30.17,30.01,29.91,10,10,10,21,8,30,0.00,4,,304
2013-6-5,66,53,39,44,38,29,100,63,26,30.26,30.21,30.17,10,10,10,13,3,18,0.00,1,,342
2013-6-6,68,57,46,53,47,43,93,68,42,30.25,30.18,30.13,10,10,5,12,2,15,0.11,7,Rain,328
2013-6-7,54,52,50,53,49,47,100,92,83,30.12,30.06,29.95,10,5,1,14,4,17,1.04,8,Rain,159
2013-6-8,64,57,50,56,52,48,100,89,78,30.07,29.89,29.80,10,8,2,18,6,25,0.33,8,Rain,320
2013-6-9,72,61,49,56,52,49,100,74,47,30.25,30.14,30.08,10,10,4,12,4,18,0.00,5,Rain,277
2013-6-10,72,59,46,56,50,43,100,68,35,30.27,30.20,30.05,10,6,0,16,4,22,0.32,4,Fog-Rain,165
2013-6-11,59,56,53,55,54,52,100,93,86,30.02,29.76,29.64,10,4,2,12,2,22,1.60,8,Rain,177
2013-6-12,64,56,47,54,52,47,100,80,60,29.91,29.75,29.65,10,6,2,18,6,25,0.12,7,Rain,332
2013-6-13,65,55,44,54,48,45,100,76,52,29.88,29.83,29.75,10,5,0,10,2,14,0.00,5,Fog,170
2013-6-14,73,62,50,55,50,44,100,71,41,29.88,29.79,29.75,10,7,0,15,6,24,T,3,Fog,329
2013-6-15,71,60,48,45,42,39,74,56,37,30.00,29.96,29.89,10,10,10,17,6,22,0.00,1,,297
2013-6-16,70,58,46,61,55,43,100,77,53,29.97,29.83,29.75,10,7,2,16,4,20,0.19,7,Rain,149
2013-6-17,74,62,50,60,54,48,100,77,53,29.98,29.86,29.82,10,8,1,13,5,17,0.06,4,Rain-Thunderstorm,243
2013-6-18,66,55,44,52,48,43,100,74,48,30.05,30.00,29.96,10,10,6,10,2,14,0.03,4,Rain,266
2013-6-19,67,54,41,45,42,38,96,67,37,30.25,30.12,30.04,10,9,1,13,4,20,0.00,0,,331
2013-6-20,75,57,39,49,43,37,100,64,27,30.32,30.28,30.24,10,6,0,10,1,15,0.00,3,Fog,221
2013-6-21,79,63,46,55,49,45,100,68,35,30.31,30.28,30.26,10,10,10,13,3,17,0.00,0,,348
2013-6-22,80,67,54,65,61,52,100,77,54,30.27,30.20,30.17,10,6,1,9,2,13,0.49,6,Rain,9
2013-6-23,84,73,61,70,65,61,100,81,62,30.17,30.11,30.03,10,4,0,16,3,21,0.61,6,Fog-Rain-Thunderstorm,118
2013-6-24,86,74,62,70,65,62,100,78,55,30.05,30.01,29.94,10,6,0,16,3,26,0.22,3,Fog-Rain-Thunderstorm,260
2013-6-25,85,73,60,70,64,61,100,78,55,29.98,29.89,29.80,10,4,0,21,3,30,0.81,5,Fog-Rain-Thunderstorm,156
2013-6-26,75,69,62,67,65,62,100,87,74,29.87,29.84,29.80,10,6,0,9,2,14,0.52,5,Fog-Rain,196
2013-6-27,81,70,59,67,64,59,100,79,58,29.86,29.83,29.78,10,8,1,13,5,17,0.01,3,,165
2013-6-28,78,70,61,65,62,59,100,82,64,29.79,29.59,29.47,10,7,2,22,7,29,1.09,7,Rain,112
2013-6-29,80,71,61,66,62,58,100,76,52,29.73,29.59,29.53,10,9,1,16,3,22,0.06,7,Rain,287
2013-6-30,82,71,60,68,62,57,100,76,51,29.99,29.85,29.73,10,7,0,9,2,13,0.14,6,Fog-Rain,265